sensor_id;sensor_type;location;lat;lon;timestamp;P1;durP1;ratioP1;P2;durP2;ratioP2
51854;SDS011;37895;53.240;6.572;2023-06-22T00:01:57;30.83;;;26.90;;
51854;SDS011;37895;53.240;6.572;2023-06-22T00:04:24;28.88;;;25.83;;
51854;SDS011;37895;53.240;6.572;2023-06-22T00:06:50;29.33;;;26.33;;
51854;SDS011;37895;53.240;6.572;2023-06-22T00:09:16;35.25;;;29.05;;
51854;SDS011;37895;53.240;6.572;2023-06-22T00:11:41;31.35;;;27.95;;
51854;SDS011;37895;53.240;6.572;2023-06-22T00:14:07;28.42;;;25.42;;
51854;SDS011;37895;53.240;6.572;2023-06-22T00:16:33;27.77;;;24.80;;
51854;SDS011;37895;53.240;6.572;2023-06-22T00:18:58;30.10;;;26.88;;
51854;SDS011;37895;53.240;6.572;2023-06-22T00:21:28;28.20;;;25.15;;
51854;SDS011;37895;53.240;6.572;2023-06-22T00:23:54;25.52;;;22.80;;
51854;SDS011;37895;53.240;6.572;2023-06-22T00:26:20;27.02;;;24.17;;
51854;SDS011;37895;53.240;6.572;2023-06-22T00:28:46;28.35;;;25.45;;
51854;SDS011;37895;53.240;6.572;2023-06-22T00:31:12;28.55;;;23.77;;
51854;SDS011;37895;53.240;6.572;2023-06-22T00:33:38;23.75;;;21.00;;
51854;SDS011;37895;53.240;6.572;2023-06-22T00:36:04;23.58;;;21.27;;
51854;SDS011;37895;53.240;6.572;2023-06-22T00:38:31;28.50;;;23.83;;
51854;SDS011;37895;53.240;6.572;2023-06-22T00:40:56;31.25;;;27.95;;
51854;SDS011;37895;53.240;6.572;2023-06-22T00:43:22;33.40;;;29.90;;
51854;SDS011;37895;53.240;6.572;2023-06-22T00:45:48;32.40;;;28.83;;
51854;SDS011;37895;53.240;6.572;2023-06-22T00:48:13;29.67;;;26.40;;
51854;SDS011;37895;53.240;6.572;2023-06-22T00:50:40;30.52;;;26.88;;
51854;SDS011;37895;53.240;6.572;2023-06-22T00:53:06;33.53;;;28.30;;
51854;SDS011;37895;53.240;6.572;2023-06-22T00:55:36;35.80;;;29.70;;
51854;SDS011;37895;53.240;6.572;2023-06-22T00:58:04;37.10;;;31.20;;
51854;SDS011;37895;53.240;6.572;2023-06-22T01:00:33;40.63;;;33.80;;
51854;SDS011;37895;53.240;6.572;2023-06-22T01:02:58;45.35;;;37.05;;
51854;SDS011;37895;53.240;6.572;2023-06-22T01:05:24;35.72;;;32.00;;
51854;SDS011;37895;53.240;6.572;2023-06-22T01:10:50;35.95;;;29.45;;
51854;SDS011;37895;53.240;6.572;2023-06-22T01:16:28;29.85;;;26.15;;
51854;SDS011;37895;53.240;6.572;2023-06-22T01:21:22;22.13;;;19.92;;
51854;SDS011;37895;53.240;6.572;2023-06-22T01:23:56;21.95;;;19.73;;
51854;SDS011;37895;53.240;6.572;2023-06-22T01:29:39;24.35;;;21.77;;
51854;SDS011;37895;53.240;6.572;2023-06-22T01:32:05;20.50;;;18.65;;
51854;SDS011;37895;53.240;6.572;2023-06-22T01:34:32;21.77;;;19.77;;
51854;SDS011;37895;53.240;6.572;2023-06-22T01:36:59;18.85;;;17.05;;
51854;SDS011;37895;53.240;6.572;2023-06-22T01:39:27;21.98;;;19.98;;
51854;SDS011;37895;53.240;6.572;2023-06-22T01:41:53;25.15;;;22.50;;
51854;SDS011;37895;53.240;6.572;2023-06-22T01:44:19;24.35;;;21.88;;
51854;SDS011;37895;53.240;6.572;2023-06-22T01:46:46;24.60;;;22.33;;
51854;SDS011;37895;53.240;6.572;2023-06-22T01:49:15;26.95;;;24.15;;
51854;SDS011;37895;53.240;6.572;2023-06-22T01:51:40;29.77;;;26.67;;
51854;SDS011;37895;53.240;6.572;2023-06-22T01:54:06;26.25;;;23.90;;
51854;SDS011;37895;53.240;6.572;2023-06-22T01:56:33;27.73;;;25.13;;
51854;SDS011;37895;53.240;6.572;2023-06-22T01:59:17;27.60;;;24.90;;
51854;SDS011;37895;53.240;6.572;2023-06-22T02:07:29;27.30;;;24.70;;
51854;SDS011;37895;53.240;6.572;2023-06-22T02:09:59;32.22;;;28.60;;
51854;SDS011;37895;53.240;6.572;2023-06-22T02:12:27;34.33;;;30.75;;
51854;SDS011;37895;53.240;6.572;2023-06-22T02:14:54;29.02;;;25.98;;
51854;SDS011;37895;53.240;6.572;2023-06-22T02:19:46;31.05;;;27.90;;
51854;SDS011;37895;53.240;6.572;2023-06-22T02:22:11;32.70;;;29.17;;
51854;SDS011;37895;53.240;6.572;2023-06-22T02:24:40;28.20;;;25.33;;
51854;SDS011;37895;53.240;6.572;2023-06-22T02:27:05;28.02;;;25.38;;
51854;SDS011;37895;53.240;6.572;2023-06-22T02:29:32;29.08;;;26.15;;
51854;SDS011;37895;53.240;6.572;2023-06-22T02:31:58;29.15;;;26.23;;
51854;SDS011;37895;53.240;6.572;2023-06-22T02:34:23;29.65;;;26.90;;
51854;SDS011;37895;53.240;6.572;2023-06-22T02:36:49;30.30;;;27.48;;
51854;SDS011;37895;53.240;6.572;2023-06-22T02:39:19;24.05;;;21.88;;
51854;SDS011;37895;53.240;6.572;2023-06-22T02:41:49;25.48;;;23.17;;
51854;SDS011;37895;53.240;6.572;2023-06-22T02:44:16;28.65;;;25.95;;
51854;SDS011;37895;53.240;6.572;2023-06-22T02:46:42;28.77;;;26.08;;
51854;SDS011;37895;53.240;6.572;2023-06-22T02:49:08;29.77;;;26.48;;
51854;SDS011;37895;53.240;6.572;2023-06-22T02:51:35;25.70;;;23.30;;
51854;SDS011;37895;53.240;6.572;2023-06-22T02:54:00;21.58;;;19.67;;
51854;SDS011;37895;53.240;6.572;2023-06-22T02:56:28;21.63;;;19.83;;
51854;SDS011;37895;53.240;6.572;2023-06-22T02:58:55;22.42;;;20.60;;
51854;SDS011;37895;53.240;6.572;2023-06-22T03:01:25;22.67;;;20.45;;
51854;SDS011;37895;53.240;6.572;2023-06-22T03:03:52;21.00;;;19.10;;
51854;SDS011;37895;53.240;6.572;2023-06-22T03:06:27;20.42;;;18.70;;
51854;SDS011;37895;53.240;6.572;2023-06-22T03:08:58;23.80;;;21.60;;
51854;SDS011;37895;53.240;6.572;2023-06-22T03:11:26;20.48;;;18.67;;
51854;SDS011;37895;53.240;6.572;2023-06-22T03:13:52;25.70;;;23.33;;
51854;SDS011;37895;53.240;6.572;2023-06-22T03:16:18;27.55;;;24.92;;
51854;SDS011;37895;53.240;6.572;2023-06-22T03:18:44;22.92;;;20.80;;
51854;SDS011;37895;53.240;6.572;2023-06-22T03:23:35;30.35;;;27.38;;
51854;SDS011;37895;53.240;6.572;2023-06-22T03:26:01;32.85;;;29.50;;
51854;SDS011;37895;53.240;6.572;2023-06-22T03:28:27;32.13;;;29.05;;
51854;SDS011;37895;53.240;6.572;2023-06-22T03:30:53;35.33;;;31.85;;
51854;SDS011;37895;53.240;6.572;2023-06-22T03:33:19;35.25;;;31.75;;
51854;SDS011;37895;53.240;6.572;2023-06-22T03:35:44;31.45;;;28.45;;
51854;SDS011;37895;53.240;6.572;2023-06-22T03:38:10;30.33;;;27.70;;
51854;SDS011;37895;53.240;6.572;2023-06-22T03:40:36;30.98;;;28.40;;
51854;SDS011;37895;53.240;6.572;2023-06-22T03:43:01;30.50;;;27.80;;
51854;SDS011;37895;53.240;6.572;2023-06-22T03:45:27;30.95;;;28.05;;
51854;SDS011;37895;53.240;6.572;2023-06-22T03:47:52;26.75;;;24.45;;
51854;SDS011;37895;53.240;6.572;2023-06-22T03:50:18;26.35;;;24.08;;
51854;SDS011;37895;53.240;6.572;2023-06-22T03:52:45;29.13;;;26.63;;
51854;SDS011;37895;53.240;6.572;2023-06-22T03:55:11;28.95;;;26.48;;
51854;SDS011;37895;53.240;6.572;2023-06-22T03:57:37;32.17;;;29.17;;
51854;SDS011;37895;53.240;6.572;2023-06-22T04:00:02;30.58;;;27.88;;
51854;SDS011;37895;53.240;6.572;2023-06-22T04:02:32;33.30;;;30.10;;
51854;SDS011;37895;53.240;6.572;2023-06-22T04:04:58;34.40;;;30.88;;
51854;SDS011;37895;53.240;6.572;2023-06-22T04:07:24;37.13;;;33.50;;
51854;SDS011;37895;53.240;6.572;2023-06-22T04:09:49;35.00;;;31.73;;
51854;SDS011;37895;53.240;6.572;2023-06-22T04:12:15;36.55;;;33.00;;
51854;SDS011;37895;53.240;6.572;2023-06-22T04:14:41;36.03;;;32.53;;
51854;SDS011;37895;53.240;6.572;2023-06-22T04:17:06;32.90;;;29.40;;
51854;SDS011;37895;53.240;6.572;2023-06-22T04:19:32;38.13;;;33.83;;
51854;SDS011;37895;53.240;6.572;2023-06-22T04:21:58;37.28;;;33.28;;
51854;SDS011;37895;53.240;6.572;2023-06-22T04:24:23;37.15;;;33.40;;
51854;SDS011;37895;53.240;6.572;2023-06-22T04:26:49;38.25;;;34.35;;
51854;SDS011;37895;53.240;6.572;2023-06-22T04:29:19;37.05;;;32.75;;
51854;SDS011;37895;53.240;6.572;2023-06-22T04:31:45;32.35;;;28.88;;
51854;SDS011;37895;53.240;6.572;2023-06-22T04:34:16;40.15;;;34.22;;
51854;SDS011;37895;53.240;6.572;2023-06-22T04:36:42;43.63;;;37.33;;
51854;SDS011;37895;53.240;6.572;2023-06-22T04:39:09;40.60;;;36.10;;
51854;SDS011;37895;53.240;6.572;2023-06-22T04:41:36;46.67;;;39.00;;
51854;SDS011;37895;53.240;6.572;2023-06-22T04:44:09;43.42;;;37.75;;
51854;SDS011;37895;53.240;6.572;2023-06-22T04:46:36;50.50;;;41.05;;
51854;SDS011;37895;53.240;6.572;2023-06-22T04:49:06;50.83;;;43.00;;
51854;SDS011;37895;53.240;6.572;2023-06-22T04:51:35;47.50;;;38.65;;
51854;SDS011;37895;53.240;6.572;2023-06-22T04:54:05;45.53;;;40.42;;
51854;SDS011;37895;53.240;6.572;2023-06-22T04:56:31;52.85;;;44.80;;
51854;SDS011;37895;53.240;6.572;2023-06-22T04:58:57;54.75;;;47.60;;
51854;SDS011;37895;53.240;6.572;2023-06-22T05:01:23;65.30;;;53.10;;
51854;SDS011;37895;53.240;6.572;2023-06-22T05:03:50;67.35;;;55.28;;
51854;SDS011;37895;53.240;6.572;2023-06-22T05:06:16;68.10;;;55.55;;
51854;SDS011;37895;53.240;6.572;2023-06-22T05:08:42;63.38;;;52.67;;
51854;SDS011;37895;53.240;6.572;2023-06-22T05:11:08;56.45;;;48.67;;
51854;SDS011;37895;53.240;6.572;2023-06-22T05:13:34;63.50;;;55.10;;
51854;SDS011;37895;53.240;6.572;2023-06-22T05:15:59;55.50;;;49.33;;
51854;SDS011;37895;53.240;6.572;2023-06-22T05:18:28;53.25;;;47.70;;
51854;SDS011;37895;53.240;6.572;2023-06-22T05:20:55;54.45;;;48.53;;
51854;SDS011;37895;53.240;6.572;2023-06-22T05:23:20;54.75;;;48.95;;
51854;SDS011;37895;53.240;6.572;2023-06-22T05:25:46;60.10;;;52.35;;
51854;SDS011;37895;53.240;6.572;2023-06-22T05:28:12;61.08;;;54.50;;
51854;SDS011;37895;53.240;6.572;2023-06-22T05:30:37;56.72;;;50.72;;
51854;SDS011;37895;53.240;6.572;2023-06-22T05:33:03;56.30;;;50.30;;
51854;SDS011;37895;53.240;6.572;2023-06-22T05:35:29;53.08;;;47.47;;
51854;SDS011;37895;53.240;6.572;2023-06-22T05:37:55;57.85;;;51.58;;
51854;SDS011;37895;53.240;6.572;2023-06-22T05:40:20;53.92;;;48.17;;
51854;SDS011;37895;53.240;6.572;2023-06-22T05:42:46;60.47;;;54.08;;
51854;SDS011;37895;53.240;6.572;2023-06-22T05:47:38;55.35;;;49.30;;
51854;SDS011;37895;53.240;6.572;2023-06-22T05:50:04;47.72;;;42.58;;
51854;SDS011;37895;53.240;6.572;2023-06-22T05:52:33;53.53;;;47.72;;
51854;SDS011;37895;53.240;6.572;2023-06-22T05:54:59;53.20;;;47.40;;
51854;SDS011;37895;53.240;6.572;2023-06-22T05:57:27;46.85;;;41.38;;
51854;SDS011;37895;53.240;6.572;2023-06-22T05:59:52;49.80;;;43.40;;
51854;SDS011;37895;53.240;6.572;2023-06-22T06:02:19;44.30;;;39.60;;
51854;SDS011;37895;53.240;6.572;2023-06-22T06:04:44;44.92;;;39.67;;
51854;SDS011;37895;53.240;6.572;2023-06-22T06:07:10;40.15;;;36.05;;
51854;SDS011;37895;53.240;6.572;2023-06-22T06:09:36;45.85;;;41.00;;
51854;SDS011;37895;53.240;6.572;2023-06-22T06:12:01;45.80;;;40.83;;
51854;SDS011;37895;53.240;6.572;2023-06-22T06:14:28;44.85;;;40.30;;
51854;SDS011;37895;53.240;6.572;2023-06-22T06:16:53;39.80;;;35.58;;
51854;SDS011;37895;53.240;6.572;2023-06-22T06:19:19;47.75;;;42.47;;
51854;SDS011;37895;53.240;6.572;2023-06-22T06:21:44;48.28;;;43.35;;
51854;SDS011;37895;53.240;6.572;2023-06-22T06:24:11;45.88;;;41.13;;
51854;SDS011;37895;53.240;6.572;2023-06-22T06:26:37;47.33;;;42.00;;
51854;SDS011;37895;53.240;6.572;2023-06-22T06:29:02;44.50;;;39.80;;
51854;SDS011;37895;53.240;6.572;2023-06-22T06:31:28;43.78;;;38.97;;
51854;SDS011;37895;53.240;6.572;2023-06-22T06:33:54;45.00;;;40.15;;
51854;SDS011;37895;53.240;6.572;2023-06-22T06:38:45;38.88;;;34.83;;
51854;SDS011;37895;53.240;6.572;2023-06-22T06:41:15;37.30;;;33.33;;
51854;SDS011;37895;53.240;6.572;2023-06-22T06:43:41;41.53;;;37.22;;
51854;SDS011;37895;53.240;6.572;2023-06-22T06:46:09;42.40;;;36.20;;
51854;SDS011;37895;53.240;6.572;2023-06-22T06:48:35;38.60;;;34.58;;
51854;SDS011;37895;53.240;6.572;2023-06-22T06:51:01;35.15;;;31.55;;
51854;SDS011;37895;53.240;6.572;2023-06-22T06:53:26;31.33;;;28.13;;
51854;SDS011;37895;53.240;6.572;2023-06-22T06:55:53;28.75;;;25.73;;
51854;SDS011;37895;53.240;6.572;2023-06-22T07:00:45;26.92;;;24.05;;
51854;SDS011;37895;53.240;6.572;2023-06-22T07:03:10;23.83;;;21.45;;
51854;SDS011;37895;53.240;6.572;2023-06-22T07:05:36;21.58;;;19.33;;
51854;SDS011;37895;53.240;6.572;2023-06-22T07:08:02;23.95;;;21.55;;
51854;SDS011;37895;53.240;6.572;2023-06-22T07:10:28;26.08;;;22.90;;
51854;SDS011;37895;53.240;6.572;2023-06-22T07:15:19;20.17;;;18.08;;
51854;SDS011;37895;53.240;6.572;2023-06-22T07:17:45;23.20;;;20.85;;
51854;SDS011;37895;53.240;6.572;2023-06-22T07:20:11;20.88;;;18.60;;
51854;SDS011;37895;53.240;6.572;2023-06-22T07:22:37;22.85;;;20.48;;
51854;SDS011;37895;53.240;6.572;2023-06-22T07:25:08;21.67;;;19.20;;
51854;SDS011;37895;53.240;6.572;2023-06-22T07:27:38;22.92;;;20.02;;
51854;SDS011;37895;53.240;6.572;2023-06-22T07:30:08;20.23;;;18.17;;
51854;SDS011;37895;53.240;6.572;2023-06-22T07:32:34;20.10;;;18.15;;
51854;SDS011;37895;53.240;6.572;2023-06-22T07:35:00;22.85;;;19.10;;
51854;SDS011;37895;53.240;6.572;2023-06-22T07:37:27;18.75;;;16.75;;
51854;SDS011;37895;53.240;6.572;2023-06-22T07:39:54;17.20;;;15.40;;
51854;SDS011;37895;53.240;6.572;2023-06-22T07:42:26;11.63;;;10.43;;
51854;SDS011;37895;53.240;6.572;2023-06-22T07:44:53;11.38;;;9.98;;
51854;SDS011;37895;53.240;6.572;2023-06-22T07:47:19;10.27;;;8.90;;
51854;SDS011;37895;53.240;6.572;2023-06-22T07:49:46;10.98;;;9.90;;
51854;SDS011;37895;53.240;6.572;2023-06-22T07:52:11;11.27;;;8.73;;
51854;SDS011;37895;53.240;6.572;2023-06-22T07:54:37;13.05;;;11.70;;
51854;SDS011;37895;53.240;6.572;2023-06-22T07:57:03;12.73;;;11.43;;
51854;SDS011;37895;53.240;6.572;2023-06-22T07:59:29;14.98;;;13.25;;
51854;SDS011;37895;53.240;6.572;2023-06-22T08:01:55;13.38;;;11.07;;
51854;SDS011;37895;53.240;6.572;2023-06-22T08:04:21;11.82;;;10.52;;
51854;SDS011;37895;53.240;6.572;2023-06-22T08:09:12;10.90;;;9.75;;
51854;SDS011;37895;53.240;6.572;2023-06-22T08:11:37;12.45;;;8.90;;
51854;SDS011;37895;53.240;6.572;2023-06-22T08:14:03;9.55;;;7.80;;
51854;SDS011;37895;53.240;6.572;2023-06-22T08:16:29;11.85;;;8.50;;
51854;SDS011;37895;53.240;6.572;2023-06-22T08:18:54;10.45;;;8.77;;
51854;SDS011;37895;53.240;6.572;2023-06-22T08:21:20;9.70;;;8.32;;
51854;SDS011;37895;53.240;6.572;2023-06-22T08:26:11;9.20;;;7.90;;
51854;SDS011;37895;53.240;6.572;2023-06-22T08:28:37;11.07;;;9.63;;
51854;SDS011;37895;53.240;6.572;2023-06-22T08:33:28;8.48;;;7.05;;
51854;SDS011;37895;53.240;6.572;2023-06-22T08:35:55;10.70;;;9.60;;
51854;SDS011;37895;53.240;6.572;2023-06-22T08:38:21;13.40;;;10.48;;
51854;SDS011;37895;53.240;6.572;2023-06-22T08:43:13;11.63;;;7.95;;
51854;SDS011;37895;53.240;6.572;2023-06-22T08:45:39;10.65;;;7.75;;
51854;SDS011;37895;53.240;6.572;2023-06-22T08:50:30;10.20;;;8.55;;
51854;SDS011;37895;53.240;6.572;2023-06-22T08:55:21;9.05;;;6.72;;
51854;SDS011;37895;53.240;6.572;2023-06-22T09:00:12;6.88;;;5.32;;
51854;SDS011;37895;53.240;6.572;2023-06-22T09:02:42;9.18;;;6.47;;
51854;SDS011;37895;53.240;6.572;2023-06-22T09:05:09;11.18;;;7.70;;
51854;SDS011;37895;53.240;6.572;2023-06-22T09:10:00;7.70;;;5.35;;
51854;SDS011;37895;53.240;6.572;2023-06-22T09:14:52;10.15;;;6.30;;
51854;SDS011;37895;53.240;6.572;2023-06-22T09:17:18;7.32;;;6.40;;
51854;SDS011;37895;53.240;6.572;2023-06-22T09:22:10;6.50;;;5.60;;
51854;SDS011;37895;53.240;6.572;2023-06-22T09:27:01;9.13;;;6.43;;
51854;SDS011;37895;53.240;6.572;2023-06-22T09:31:52;7.45;;;6.55;;
51854;SDS011;37895;53.240;6.572;2023-06-22T09:34:18;7.97;;;5.90;;
51854;SDS011;37895;53.240;6.572;2023-06-22T09:36:45;10.43;;;6.10;;
51854;SDS011;37895;53.240;6.572;2023-06-22T09:39:11;8.10;;;6.43;;
51854;SDS011;37895;53.240;6.572;2023-06-22T09:44:02;13.07;;;8.18;;
51854;SDS011;37895;53.240;6.572;2023-06-22T09:48:53;9.05;;;6.72;;
51854;SDS011;37895;53.240;6.572;2023-06-22T09:53:46;6.88;;;5.57;;
51854;SDS011;37895;53.240;6.572;2023-06-22T09:56:12;9.40;;;6.72;;
51854;SDS011;37895;53.240;6.572;2023-06-22T09:58:40;8.93;;;7.22;;
51854;SDS011;37895;53.240;6.572;2023-06-22T10:01:11;7.50;;;6.10;;
51854;SDS011;37895;53.240;6.572;2023-06-22T10:06:02;10.32;;;7.40;;
51854;SDS011;37895;53.240;6.572;2023-06-22T10:08:28;8.20;;;6.95;;
51854;SDS011;37895;53.240;6.572;2023-06-22T10:13:20;12.18;;;7.90;;
51854;SDS011;37895;53.240;6.572;2023-06-22T10:18:16;11.40;;;5.38;;
51854;SDS011;37895;53.240;6.572;2023-06-22T10:20:47;7.70;;;6.85;;
51854;SDS011;37895;53.240;6.572;2023-06-22T10:23:15;5.70;;;5.10;;
